sensor_id;sensor_type;location;lat;lon;timestamp;P1;durP1;ratioP1;P2;durP2;ratioP2
7199;SDS011;3641;49.082;8.200;2023-03-23T00:01:22;3.33;;;1.58;;
7199;SDS011;3641;49.082;8.200;2023-03-23T00:03:52;3.35;;;1.10;;
7199;SDS011;3641;49.082;8.200;2023-03-23T00:06:22;2.63;;;1.02;;
7199;SDS011;3641;49.082;8.200;2023-03-23T00:08:50;1.48;;;1.00;;
7199;SDS011;3641;49.082;8.200;2023-03-23T00:11:22;1.67;;;1.00;;
7199;SDS011;3641;49.082;8.200;2023-03-23T00:13:52;2.85;;;0.90;;
7199;SDS011;3641;49.082;8.200;2023-03-23T00:16:19;2.22;;;1.25;;
7199;SDS011;3641;49.082;8.200;2023-03-23T00:18:55;2.17;;;1.20;;
7199;SDS011;3641;49.082;8.200;2023-03-23T00:21:24;3.17;;;1.30;;
7199;SDS011;3641;49.082;8.200;2023-03-23T00:23:58;2.40;;;0.90;;
7199;SDS011;3641;49.082;8.200;2023-03-23T00:26:25;3.53;;;1.08;;
7199;SDS011;3641;49.082;8.200;2023-03-23T00:28:55;1.77;;;1.00;;
7199;SDS011;3641;49.082;8.200;2023-03-23T00:31:21;4.28;;;1.10;;
7199;SDS011;3641;49.082;8.200;2023-03-23T00:33:48;1.67;;;1.00;;
7199;SDS011;3641;49.082;8.200;2023-03-23T00:36:14;4.40;;;1.30;;
7199;SDS011;3641;49.082;8.200;2023-03-23T00:38:42;2.78;;;1.20;;
7199;SDS011;3641;49.082;8.200;2023-03-23T00:41:09;2.60;;;1.20;;
7199;SDS011;3641;49.082;8.200;2023-03-23T00:43:36;3.50;;;1.20;;
7199;SDS011;3641;49.082;8.200;2023-03-23T00:46:05;3.25;;;1.30;;
7199;SDS011;3641;49.082;8.200;2023-03-23T00:48:34;5.55;;;1.45;;
7199;SDS011;3641;49.082;8.200;2023-03-23T00:51:05;2.35;;;1.15;;
7199;SDS011;3641;49.082;8.200;2023-03-23T00:53:36;5.57;;;1.50;;
7199;SDS011;3641;49.082;8.200;2023-03-23T00:56:03;2.35;;;1.20;;
7199;SDS011;3641;49.082;8.200;2023-03-23T00:58:29;2.92;;;1.52;;
7199;SDS011;3641;49.082;8.200;2023-03-23T01:00:56;2.45;;;1.27;;
7199;SDS011;3641;49.082;8.200;2023-03-23T01:03:23;3.00;;;1.58;;
7199;SDS011;3641;49.082;8.200;2023-03-23T01:05:51;2.47;;;1.30;;
7199;SDS011;3641;49.082;8.200;2023-03-23T01:08:18;2.83;;;1.20;;
7199;SDS011;3641;49.082;8.200;2023-03-23T01:10:46;1.70;;;1.10;;
7199;SDS011;3641;49.082;8.200;2023-03-23T01:13:13;2.80;;;1.60;;
7199;SDS011;3641;49.082;8.200;2023-03-23T01:15:40;2.80;;;1.23;;
7199;SDS011;3641;49.082;8.200;2023-03-23T01:18:07;3.90;;;1.38;;
7199;SDS011;3641;49.082;8.200;2023-03-23T01:20:35;2.80;;;1.30;;
7199;SDS011;3641;49.082;8.200;2023-03-23T01:23:02;2.28;;;1.30;;
7199;SDS011;3641;49.082;8.200;2023-03-23T01:25:30;4.88;;;1.50;;
7199;SDS011;3641;49.082;8.200;2023-03-23T01:27:58;4.40;;;1.30;;
7199;SDS011;3641;49.082;8.200;2023-03-23T01:30:25;5.85;;;1.45;;
7199;SDS011;3641;49.082;8.200;2023-03-23T01:32:52;1.55;;;1.17;;
7199;SDS011;3641;49.082;8.200;2023-03-23T01:35:20;2.13;;;1.25;;
7199;SDS011;3641;49.082;8.200;2023-03-23T01:37:48;2.60;;;1.20;;
7199;SDS011;3641;49.082;8.200;2023-03-23T01:40:15;2.35;;;1.17;;
7199;SDS011;3641;49.082;8.200;2023-03-23T01:42:41;3.25;;;1.50;;
7199;SDS011;3641;49.082;8.200;2023-03-23T01:48:05;2.20;;;1.27;;
7199;SDS011;3641;49.082;8.200;2023-03-23T01:50:36;2.80;;;1.42;;
7199;SDS011;3641;49.082;8.200;2023-03-23T01:53:11;4.22;;;1.48;;
7199;SDS011;3641;49.082;8.200;2023-03-23T01:55:38;7.53;;;1.50;;
7199;SDS011;3641;49.082;8.200;2023-03-23T01:58:07;3.22;;;1.38;;
7199;SDS011;3641;49.082;8.200;2023-03-23T02:00:35;4.07;;;1.33;;
7199;SDS011;3641;49.082;8.200;2023-03-23T02:03:05;1.90;;;1.30;;
7199;SDS011;3641;49.082;8.200;2023-03-23T02:05:33;3.88;;;1.30;;
7199;SDS011;3641;49.082;8.200;2023-03-23T02:08:04;3.67;;;1.25;;
7199;SDS011;3641;49.082;8.200;2023-03-23T02:10:35;4.10;;;1.65;;
7199;SDS011;3641;49.082;8.200;2023-03-23T02:13:03;3.88;;;1.42;;
7199;SDS011;3641;49.082;8.200;2023-03-23T02:15:33;6.95;;;1.48;;
7199;SDS011;3641;49.082;8.200;2023-03-23T02:18:16;3.67;;;1.75;;
7199;SDS011;3641;49.082;8.200;2023-03-23T02:20:59;2.05;;;1.35;;
7199;SDS011;3641;49.082;8.200;2023-03-23T02:23:51;1.88;;;1.33;;
7199;SDS011;3641;49.082;8.200;2023-03-23T02:26:48;4.30;;;1.48;;
7199;SDS011;3641;49.082;8.200;2023-03-23T02:32:18;3.80;;;1.50;;
7199;SDS011;3641;49.082;8.200;2023-03-23T02:34:59;5.80;;;1.55;;
7199;SDS011;3641;49.082;8.200;2023-03-23T02:37:29;3.10;;;1.60;;
7199;SDS011;3641;49.082;8.200;2023-03-23T02:40:00;2.95;;;1.33;;
7199;SDS011;3641;49.082;8.200;2023-03-23T02:42:33;2.92;;;1.40;;
7199;SDS011;3641;49.082;8.200;2023-03-23T02:45:02;4.18;;;1.42;;
7199;SDS011;3641;49.082;8.200;2023-03-23T02:47:31;3.08;;;1.45;;
7199;SDS011;3641;49.082;8.200;2023-03-23T02:50:03;2.60;;;1.50;;
7199;SDS011;3641;49.082;8.200;2023-03-23T02:52:33;5.38;;;1.45;;
7199;SDS011;3641;49.082;8.200;2023-03-23T02:55:03;3.20;;;1.52;;
7199;SDS011;3641;49.082;8.200;2023-03-23T02:57:31;3.35;;;1.65;;
7199;SDS011;3641;49.082;8.200;2023-03-23T02:59:58;2.60;;;1.52;;
7199;SDS011;3641;49.082;8.200;2023-03-23T03:02:25;3.05;;;1.60;;
7199;SDS011;3641;49.082;8.200;2023-03-23T03:04:55;3.53;;;1.55;;
7199;SDS011;3641;49.082;8.200;2023-03-23T03:07:34;3.80;;;1.77;;
7199;SDS011;3641;49.082;8.200;2023-03-23T03:10:10;2.95;;;1.50;;
7199;SDS011;3641;49.082;8.200;2023-03-23T03:12:46;2.92;;;1.52;;
7199;SDS011;3641;49.082;8.200;2023-03-23T03:15:20;4.00;;;1.60;;
7199;SDS011;3641;49.082;8.200;2023-03-23T03:17:53;4.15;;;1.65;;
7199;SDS011;3641;49.082;8.200;2023-03-23T03:20:26;4.30;;;1.75;;
7199;SDS011;3641;49.082;8.200;2023-03-23T03:22:55;6.28;;;1.58;;
7199;SDS011;3641;49.082;8.200;2023-03-23T03:25:23;3.15;;;1.67;;
7199;SDS011;3641;49.082;8.200;2023-03-23T03:27:52;3.15;;;1.70;;
7199;SDS011;3641;49.082;8.200;2023-03-23T03:30:21;3.80;;;2.00;;
7199;SDS011;3641;49.082;8.200;2023-03-23T03:32:59;2.50;;;1.50;;
7199;SDS011;3641;49.082;8.200;2023-03-23T03:35:28;4.35;;;1.60;;
7199;SDS011;3641;49.082;8.200;2023-03-23T03:37:58;3.17;;;1.80;;
7199;SDS011;3641;49.082;8.200;2023-03-23T03:40:32;3.88;;;2.28;;
7199;SDS011;3641;49.082;8.200;2023-03-23T03:42:58;4.95;;;1.83;;
7199;SDS011;3641;49.082;8.200;2023-03-23T03:45:25;4.00;;;2.10;;
7199;SDS011;3641;49.082;8.200;2023-03-23T03:47:52;5.57;;;1.70;;
7199;SDS011;3641;49.082;8.200;2023-03-23T03:50:18;4.80;;;1.52;;
7199;SDS011;3641;49.082;8.200;2023-03-23T03:52:45;2.47;;;1.63;;
7199;SDS011;3641;49.082;8.200;2023-03-23T03:55:13;4.15;;;1.88;;
7199;SDS011;3641;49.082;8.200;2023-03-23T03:57:40;3.90;;;2.00;;
7199;SDS011;3641;49.082;8.200;2023-03-23T04:00:07;3.55;;;1.73;;
7199;SDS011;3641;49.082;8.200;2023-03-23T04:02:39;3.15;;;1.52;;
7199;SDS011;3641;49.082;8.200;2023-03-23T04:05:07;4.38;;;1.85;;
7199;SDS011;3641;49.082;8.200;2023-03-23T04:07:35;2.70;;;1.60;;
7199;SDS011;3641;49.082;8.200;2023-03-23T04:10:03;3.13;;;1.80;;
7199;SDS011;3641;49.082;8.200;2023-03-23T04:12:31;2.65;;;1.77;;
7199;SDS011;3641;49.082;8.200;2023-03-23T04:14:58;3.67;;;1.80;;
7199;SDS011;3641;49.082;8.200;2023-03-23T04:17:24;5.82;;;1.90;;
7199;SDS011;3641;49.082;8.200;2023-03-23T04:19:52;6.13;;;2.05;;
7199;SDS011;3641;49.082;8.200;2023-03-23T04:22:21;4.38;;;1.75;;
7199;SDS011;3641;49.082;8.200;2023-03-23T04:24:49;4.32;;;1.98;;
7199;SDS011;3641;49.082;8.200;2023-03-23T04:27:16;4.45;;;2.03;;
7199;SDS011;3641;49.082;8.200;2023-03-23T04:29:44;4.43;;;2.10;;
7199;SDS011;3641;49.082;8.200;2023-03-23T04:32:13;3.33;;;2.00;;
7199;SDS011;3641;49.082;8.200;2023-03-23T04:34:42;6.13;;;1.92;;
7199;SDS011;3641;49.082;8.200;2023-03-23T04:37:09;3.50;;;1.88;;
7199;SDS011;3641;49.082;8.200;2023-03-23T04:39:35;7.05;;;2.13;;
7199;SDS011;3641;49.082;8.200;2023-03-23T04:42:04;3.00;;;1.80;;
7199;SDS011;3641;49.082;8.200;2023-03-23T04:44:31;7.82;;;2.42;;
7199;SDS011;3641;49.082;8.200;2023-03-23T04:46:59;4.22;;;1.83;;
7199;SDS011;3641;49.082;8.200;2023-03-23T04:49:27;4.53;;;2.30;;
7199;SDS011;3641;49.082;8.200;2023-03-23T04:51:54;3.25;;;1.77;;
7199;SDS011;3641;49.082;8.200;2023-03-23T04:54:21;3.65;;;2.05;;
7199;SDS011;3641;49.082;8.200;2023-03-23T04:56:47;3.60;;;1.80;;
7199;SDS011;3641;49.082;8.200;2023-03-23T04:59:14;3.33;;;1.90;;
7199;SDS011;3641;49.082;8.200;2023-03-23T05:01:40;4.32;;;1.70;;
7199;SDS011;3641;49.082;8.200;2023-03-23T05:04:11;4.15;;;1.85;;
7199;SDS011;3641;49.082;8.200;2023-03-23T05:06:41;6.75;;;1.60;;
7199;SDS011;3641;49.082;8.200;2023-03-23T05:09:10;3.67;;;1.75;;
7199;SDS011;3641;49.082;8.200;2023-03-23T05:11:36;3.47;;;1.70;;
7199;SDS011;3641;49.082;8.200;2023-03-23T05:14:03;4.72;;;1.90;;
7199;SDS011;3641;49.082;8.200;2023-03-23T05:16:29;3.30;;;1.50;;
7199;SDS011;3641;49.082;8.200;2023-03-23T05:18:56;3.10;;;1.67;;
7199;SDS011;3641;49.082;8.200;2023-03-23T05:21:24;4.20;;;1.70;;
7199;SDS011;3641;49.082;8.200;2023-03-23T05:23:51;3.75;;;1.77;;
7199;SDS011;3641;49.082;8.200;2023-03-23T05:26:19;3.45;;;1.85;;
7199;SDS011;3641;49.082;8.200;2023-03-23T05:28:46;2.75;;;1.70;;
7199;SDS011;3641;49.082;8.200;2023-03-23T05:31:13;3.83;;;1.75;;
7199;SDS011;3641;49.082;8.200;2023-03-23T05:33:39;3.90;;;1.85;;
7199;SDS011;3641;49.082;8.200;2023-03-23T05:36:06;4.95;;;1.48;;
7199;SDS011;3641;49.082;8.200;2023-03-23T05:38:37;4.47;;;1.83;;
7199;SDS011;3641;49.082;8.200;2023-03-23T05:41:03;2.92;;;1.45;;
7199;SDS011;3641;49.082;8.200;2023-03-23T05:43:30;2.88;;;1.77;;
7199;SDS011;3641;49.082;8.200;2023-03-23T05:45:56;3.92;;;1.85;;
7199;SDS011;3641;49.082;8.200;2023-03-23T05:48:23;4.10;;;1.58;;
7199;SDS011;3641;49.082;8.200;2023-03-23T05:50:49;3.42;;;1.50;;
7199;SDS011;3641;49.082;8.200;2023-03-23T05:53:16;4.55;;;1.60;;
7199;SDS011;3641;49.082;8.200;2023-03-23T05:55:44;3.50;;;1.60;;
7199;SDS011;3641;49.082;8.200;2023-03-23T05:58:10;3.05;;;1.70;;
7199;SDS011;3641;49.082;8.200;2023-03-23T06:00:36;2.80;;;1.55;;
7199;SDS011;3641;49.082;8.200;2023-03-23T06:03:04;3.45;;;1.65;;
7199;SDS011;3641;49.082;8.200;2023-03-23T06:05:30;3.20;;;1.60;;
7199;SDS011;3641;49.082;8.200;2023-03-23T06:07:57;4.75;;;1.95;;
7199;SDS011;3641;49.082;8.200;2023-03-23T06:10:24;3.92;;;1.60;;
7199;SDS011;3641;49.082;8.200;2023-03-23T06:12:51;3.17;;;1.73;;
7199;SDS011;3641;49.082;8.200;2023-03-23T06:15:18;3.17;;;1.75;;
7199;SDS011;3641;49.082;8.200;2023-03-23T06:17:44;3.80;;;1.90;;
7199;SDS011;3641;49.082;8.200;2023-03-23T06:20:12;3.38;;;1.75;;
7199;SDS011;3641;49.082;8.200;2023-03-23T06:22:38;4.97;;;1.85;;
7199;SDS011;3641;49.082;8.200;2023-03-23T06:25:06;2.92;;;1.40;;
7199;SDS011;3641;49.082;8.200;2023-03-23T06:27:34;3.00;;;1.40;;
7199;SDS011;3641;49.082;8.200;2023-03-23T06:30:02;3.83;;;1.55;;
7199;SDS011;3641;49.082;8.200;2023-03-23T06:32:30;5.05;;;1.60;;
7199;SDS011;3641;49.082;8.200;2023-03-23T06:34:58;3.40;;;1.50;;
7199;SDS011;3641;49.082;8.200;2023-03-23T06:37:26;4.95;;;1.65;;
7199;SDS011;3641;49.082;8.200;2023-03-23T06:39:52;3.63;;;1.67;;
7199;SDS011;3641;49.082;8.200;2023-03-23T06:42:19;3.50;;;1.35;;
7199;SDS011;3641;49.082;8.200;2023-03-23T06:44:45;3.28;;;1.60;;
7199;SDS011;3641;49.082;8.200;2023-03-23T06:47:13;4.60;;;1.63;;
7199;SDS011;3641;49.082;8.200;2023-03-23T06:49:39;4.35;;;1.67;;
7199;SDS011;3641;49.082;8.200;2023-03-23T06:52:06;3.05;;;1.67;;
7199;SDS011;3641;49.082;8.200;2023-03-23T06:54:33;2.92;;;1.58;;
7199;SDS011;3641;49.082;8.200;2023-03-23T06:56:59;2.40;;;1.23;;
7199;SDS011;3641;49.082;8.200;2023-03-23T06:59:26;3.05;;;1.23;;
7199;SDS011;3641;49.082;8.200;2023-03-23T07:01:53;4.88;;;1.33;;
7199;SDS011;3641;49.082;8.200;2023-03-23T07:04:20;1.90;;;1.02;;
7199;SDS011;3641;49.082;8.200;2023-03-23T07:06:48;4.28;;;1.27;;
7199;SDS011;3641;49.082;8.200;2023-03-23T07:09:15;3.83;;;1.30;;
7199;SDS011;3641;49.082;8.200;2023-03-23T07:11:41;2.33;;;1.10;;
7199;SDS011;3641;49.082;8.200;2023-03-23T07:14:08;3.03;;;1.25;;
7199;SDS011;3641;49.082;8.200;2023-03-23T07:16:35;3.10;;;1.23;;
7199;SDS011;3641;49.082;8.200;2023-03-23T07:19:02;1.92;;;1.10;;
7199;SDS011;3641;49.082;8.200;2023-03-23T07:21:30;1.77;;;1.10;;
7199;SDS011;3641;49.082;8.200;2023-03-23T07:23:56;2.65;;;1.02;;
7199;SDS011;3641;49.082;8.200;2023-03-23T07:26:23;2.08;;;1.10;;
7199;SDS011;3641;49.082;8.200;2023-03-23T07:28:49;3.42;;;1.20;;
7199;SDS011;3641;49.082;8.200;2023-03-23T07:31:15;2.67;;;1.20;;
7199;SDS011;3641;49.082;8.200;2023-03-23T07:33:42;2.53;;;1.30;;
7199;SDS011;3641;49.082;8.200;2023-03-23T07:36:09;3.83;;;1.50;;
7199;SDS011;3641;49.082;8.200;2023-03-23T07:38:38;3.60;;;1.30;;
7199;SDS011;3641;49.082;8.200;2023-03-23T07:41:05;2.75;;;1.20;;
7199;SDS011;3641;49.082;8.200;2023-03-23T07:43:32;2.45;;;1.30;;
7199;SDS011;3641;49.082;8.200;2023-03-23T07:45:59;4.20;;;1.50;;
7199;SDS011;3641;49.082;8.200;2023-03-23T07:48:25;3.03;;;1.30;;
7199;SDS011;3641;49.082;8.200;2023-03-23T07:50:52;3.47;;;1.30;;
7199;SDS011;3641;49.082;8.200;2023-03-23T07:53:19;3.20;;;1.60;;
7199;SDS011;3641;49.082;8.200;2023-03-23T07:55:47;8.18;;;1.38;;
7199;SDS011;3641;49.082;8.200;2023-03-23T07:58:14;3.05;;;1.40;;
7199;SDS011;3641;49.082;8.200;2023-03-23T08:00:44;2.80;;;1.25;;
7199;SDS011;3641;49.082;8.200;2023-03-23T08:03:11;2.72;;;1.42;;
7199;SDS011;3641;49.082;8.200;2023-03-23T08:05:37;2.72;;;1.13;;
7199;SDS011;3641;49.082;8.200;2023-03-23T08:08:04;2.05;;;1.23;;
7199;SDS011;3641;49.082;8.200;2023-03-23T08:10:32;2.55;;;1.23;;
7199;SDS011;3641;49.082;8.200;2023-03-23T08:12:59;2.97;;;1.48;;
7199;SDS011;3641;49.082;8.200;2023-03-23T08:15:26;2.75;;;1.10;;
7199;SDS011;3641;49.082;8.200;2023-03-23T08:17:53;2.08;;;1.10;;
7199;SDS011;3641;49.082;8.200;2023-03-23T08:20:20;3.88;;;1.75;;
7199;SDS011;3641;49.082;8.200;2023-03-23T08:22:51;3.42;;;1.40;;
7199;SDS011;3641;49.082;8.200;2023-03-23T08:25:19;2.70;;;1.35;;
7199;SDS011;3641;49.082;8.200;2023-03-23T08:27:46;3.15;;;1.30;;
7199;SDS011;3641;49.082;8.200;2023-03-23T08:30:15;2.63;;;1.35;;
7199;SDS011;3641;49.082;8.200;2023-03-23T08:32:44;2.50;;;1.30;;
7199;SDS011;3641;49.082;8.200;2023-03-23T08:35:11;3.30;;;1.23;;
7199;SDS011;3641;49.082;8.200;2023-03-23T08:37:40;2.58;;;1.30;;
7199;SDS011;3641;49.082;8.200;2023-03-23T08:40:07;2.33;;;1.45;;
7199;SDS011;3641;49.082;8.200;2023-03-23T08:42:35;4.00;;;1.38;;
7199;SDS011;3641;49.082;8.200;2023-03-23T08:45:03;5.15;;;1.20;;
7199;SDS011;3641;49.082;8.200;2023-03-23T08:47:31;2.88;;;1.30;;
7199;SDS011;3641;49.082;8.200;2023-03-23T08:49:58;2.80;;;1.50;;
7199;SDS011;3641;49.082;8.200;2023-03-23T08:52:25;2.70;;;1.40;;
7199;SDS011;3641;49.082;8.200;2023-03-23T08:54:51;3.33;;;1.50;;
7199;SDS011;3641;49.082;8.200;2023-03-23T08:57:18;3.60;;;1.60;;
7199;SDS011;3641;49.082;8.200;2023-03-23T08:59:44;2.83;;;1.30;;
7199;SDS011;3641;49.082;8.200;2023-03-23T09:02:11;2.47;;;1.45;;
7199;SDS011;3641;49.082;8.200;2023-03-23T09:04:39;4.35;;;1.40;;
7199;SDS011;3641;49.082;8.200;2023-03-23T09:07:07;3.13;;;1.10;;
7199;SDS011;3641;49.082;8.200;2023-03-23T09:09:34;2.75;;;1.40;;
7199;SDS011;3641;49.082;8.200;2023-03-23T09:12:00;1.88;;;1.27;;
7199;SDS011;3641;49.082;8.200;2023-03-23T09:14:27;2.50;;;1.30;;
7199;SDS011;3641;49.082;8.200;2023-03-23T09:16:53;1.98;;;1.25;;
7199;SDS011;3641;49.082;8.200;2023-03-23T09:19:22;2.30;;;1.20;;
7199;SDS011;3641;49.082;8.200;2023-03-23T09:21:50;3.65;;;1.40;;
7199;SDS011;3641;49.082;8.200;2023-03-23T09:24:16;2.47;;;1.42;;
7199;SDS011;3641;49.082;8.200;2023-03-23T09:26:44;2.30;;;1.30;;
7199;SDS011;3641;49.082;8.200;2023-03-23T09:29:10;1.95;;;1.42;;
7199;SDS011;3641;49.082;8.200;2023-03-23T09:31:37;3.10;;;1.50;;
7199;SDS011;3641;49.082;8.200;2023-03-23T09:34:05;2.47;;;1.40;;
7199;SDS011;3641;49.082;8.200;2023-03-23T09:36:34;4.30;;;1.73;;
7199;SDS011;3641;49.082;8.200;2023-03-23T09:39:02;1.90;;;1.13;;
7199;SDS011;3641;49.082;8.200;2023-03-23T09:44:26;2.60;;;1.20;;
7199;SDS011;3641;49.082;8.200;2023-03-23T09:47:02;2.72;;;1.15;;
7199;SDS011;3641;49.082;8.200;2023-03-23T09:49:35;3.45;;;1.50;;
7199;SDS011;3641;49.082;8.200;2023-03-23T09:52:08;3.50;;;1.30;;
7199;SDS011;3641;49.082;8.200;2023-03-23T09:54:41;2.33;;;1.23;;
7199;SDS011;3641;49.082;8.200;2023-03-23T09:57:11;2.90;;;1.50;;
7199;SDS011;3641;49.082;8.200;2023-03-23T09:59:44;3.45;;;1.30;;
7199;SDS011;3641;49.082;8.200;2023-03-23T10:02:18;3.88;;;1.58;;
7199;SDS011;3641;49.082;8.200;2023-03-23T10:04:48;2.03;;;1.27;;
7199;SDS011;3641;49.082;8.200;2023-03-23T10:07:17;2.92;;;1.15;;
7199;SDS011;3641;49.082;8.200;2023-03-23T10:09:47;2.78;;;1.30;;
7199;SDS011;3641;49.082;8.200;2023-03-23T10:12:21;5.00;;;1.50;;
7199;SDS011;3641;49.082;8.200;2023-03-23T10:15:00;1.92;;;1.33;;
7199;SDS011;3641;49.082;8.200;2023-03-23T10:17:43;2.83;;;1.50;;
7199;SDS011;3641;49.082;8.200;2023-03-23T10:20:19;1.73;;;1.20;;
7199;SDS011;3641;49.082;8.200;2023-03-23T10:22:55;3.28;;;1.50;;
7199;SDS011;3641;49.082;8.200;2023-03-23T10:25:30;4.13;;;1.55;;
7199;SDS011;3641;49.082;8.200;2023-03-23T10:28:01;2.22;;;1.33;;
7199;SDS011;3641;49.082;8.200;2023-03-23T10:30:33;3.65;;;1.70;;
7199;SDS011;3641;49.082;8.200;2023-03-23T10:33:03;2.47;;;1.55;;
7199;SDS011;3641;49.082;8.200;2023-03-23T10:35:35;3.00;;;1.70;;
7199;SDS011;3641;49.082;8.200;2023-03-23T10:38:05;2.88;;;1.70;;
7199;SDS011;3641;49.082;8.200;2023-03-23T10:40:49;3.30;;;1.52;;
7199;SDS011;3641;49.082;8.200;2023-03-23T10:43:18;2.58;;;1.60;;
7199;SDS011;3641;49.082;8.200;2023-03-23T10:45:45;3.55;;;1.45;;
7199;SDS011;3641;49.082;8.200;2023-03-23T10:48:19;3.40;;;1.65;;
7199;SDS011;3641;49.082;8.200;2023-03-23T10:50:52;4.13;;;1.77;;
7199;SDS011;3641;49.082;8.200;2023-03-23T10:53:23;3.65;;;1.60;;
7199;SDS011;3641;49.082;8.200;2023-03-23T10:55:56;3.67;;;1.63;;
7199;SDS011;3641;49.082;8.200;2023-03-23T10:58:24;3.35;;;1.60;;
7199;SDS011;3641;49.082;8.200;2023-03-23T11:00:53;3.00;;;1.40;;
7199;SDS011;3641;49.082;8.200;2023-03-23T11:03:22;4.65;;;1.70;;
7199;SDS011;3641;49.082;8.200;2023-03-23T11:05:54;2.92;;;1.52;;
7199;SDS011;3641;49.082;8.200;2023-03-23T11:08:23;4.43;;;1.30;;
7199;SDS011;3641;49.082;8.200;2023-03-23T11:10:52;3.13;;;1.60;;
7199;SDS011;3641;49.082;8.200;2023-03-23T11:13:22;2.60;;;1.40;;
7199;SDS011;3641;49.082;8.200;2023-03-23T11:15:53;4.22;;;1.92;;
7199;SDS011;3641;49.082;8.200;2023-03-23T11:18:20;4.03;;;1.85;;
7199;SDS011;3641;49.082;8.200;2023-03-23T11:20:50;3.22;;;1.88;;
7199;SDS011;3641;49.082;8.200;2023-03-23T11:23:22;2.78;;;1.40;;
7199;SDS011;3641;49.082;8.200;2023-03-23T11:25:54;5.55;;;1.65;;
7199;SDS011;3641;49.082;8.200;2023-03-23T11:28:27;4.47;;;1.80;;
7199;SDS011;3641;49.082;8.200;2023-03-23T11:30:57;4.45;;;1.80;;
7199;SDS011;3641;49.082;8.200;2023-03-23T11:33:28;3.05;;;1.80;;
7199;SDS011;3641;49.082;8.200;2023-03-23T11:35:55;3.55;;;1.80;;
7199;SDS011;3641;49.082;8.200;2023-03-23T11:38:23;3.15;;;1.80;;
7199;SDS011;3641;49.082;8.200;2023-03-23T11:40:53;5.78;;;2.25;;
7199;SDS011;3641;49.082;8.200;2023-03-23T11:43:20;3.83;;;1.80;;
7199;SDS011;3641;49.082;8.200;2023-03-23T11:45:53;3.72;;;1.80;;
7199;SDS011;3641;49.082;8.200;2023-03-23T11:48:28;3.30;;;1.63;;
7199;SDS011;3641;49.082;8.200;2023-03-23T11:51:01;3.78;;;1.80;;
7199;SDS011;3641;49.082;8.200;2023-03-23T11:53:35;4.93;;;1.80;;
7199;SDS011;3641;49.082;8.200;2023-03-23T11:56:11;2.70;;;1.45;;
7199;SDS011;3641;49.082;8.200;2023-03-23T11:58:43;2.75;;;1.45;;
7199;SDS011;3641;49.082;8.200;2023-03-23T12:01:13;2.75;;;1.40;;
7199;SDS011;3641;49.082;8.200;2023-03-23T12:04:00;3.10;;;1.38;;
7199;SDS011;3641;49.082;8.200;2023-03-23T12:06:40;2.95;;;1.42;;
7199;SDS011;3641;49.082;8.200;2023-03-23T12:09:23;3.40;;;1.75;;
7199;SDS011;3641;49.082;8.200;2023-03-23T12:12:05;5.07;;;1.73;;
7199;SDS011;3641;49.082;8.200;2023-03-23T12:14:41;3.17;;;1.88;;
7199;SDS011;3641;49.082;8.200;2023-03-23T12:17:19;3.58;;;1.55;;
7199;SDS011;3641;49.082;8.200;2023-03-23T12:19:53;4.72;;;1.75;;
7199;SDS011;3641;49.082;8.200;2023-03-23T12:22:35;2.67;;;1.67;;
7199;SDS011;3641;49.082;8.200;2023-03-23T12:25:13;3.97;;;1.60;;
7199;SDS011;3641;49.082;8.200;2023-03-23T12:27:48;3.60;;;1.65;;
7199;SDS011;3641;49.082;8.200;2023-03-23T12:30:25;3.95;;;1.50;;
7199;SDS011;3641;49.082;8.200;2023-03-23T12:33:10;3.90;;;1.48;;
7199;SDS011;3641;49.082;8.200;2023-03-23T12:35:47;3.55;;;1.38;;
7199;SDS011;3641;49.082;8.200;2023-03-23T12:38:32;2.72;;;1.70;;
7199;SDS011;3641;49.082;8.200;2023-03-23T12:41:13;3.10;;;1.30;;
7199;SDS011;3641;49.082;8.200;2023-03-23T12:43:46;2.67;;;1.20;;
7199;SDS011;3641;49.082;8.200;2023-03-23T12:49:19;2.20;;;1.20;;
7199;SDS011;3641;49.082;8.200;2023-03-23T12:51:51;1.92;;;1.33;;
7199;SDS011;3641;49.082;8.200;2023-03-23T12:54:27;2.67;;;1.30;;
7199;SDS011;3641;49.082;8.200;2023-03-23T12:56:59;3.92;;;1.30;;
7199;SDS011;3641;49.082;8.200;2023-03-23T12:59:34;2.35;;;1.00;;
7199;SDS011;3641;49.082;8.200;2023-03-23T13:02:07;8.95;;;1.30;;
7199;SDS011;3641;49.082;8.200;2023-03-23T13:04:41;2.65;;;1.27;;
7199;SDS011;3641;49.082;8.200;2023-03-23T13:07:12;3.30;;;1.20;;
7199;SDS011;3641;49.082;8.200;2023-03-23T13:09:46;2.72;;;1.40;;
7199;SDS011;3641;49.082;8.200;2023-03-23T13:12:16;2.67;;;1.23;;
7199;SDS011;3641;49.082;8.200;2023-03-23T13:14:45;3.22;;;1.75;;
7199;SDS011;3641;49.082;8.200;2023-03-23T13:17:22;2.97;;;1.30;;
7199;SDS011;3641;49.082;8.200;2023-03-23T13:20:04;3.45;;;1.25;;
7199;SDS011;3641;49.082;8.200;2023-03-23T13:22:45;1.98;;;1.20;;
7199;SDS011;3641;49.082;8.200;2023-03-23T13:25:17;4.35;;;1.45;;
7199;SDS011;3641;49.082;8.200;2023-03-23T13:27:56;3.35;;;1.05;;
7199;SDS011;3641;49.082;8.200;2023-03-23T13:30:24;2.92;;;1.27;;
7199;SDS011;3641;49.082;8.200;2023-03-23T13:33:00;3.03;;;1.20;;
7199;SDS011;3641;49.082;8.200;2023-03-23T13:35:32;3.17;;;1.10;;
7199;SDS011;3641;49.082;8.200;2023-03-23T13:38:01;2.65;;;1.10;;
7199;SDS011;3641;49.082;8.200;2023-03-23T13:40:28;2.75;;;1.30;;
7199;SDS011;3641;49.082;8.200;2023-03-23T13:42:57;2.85;;;1.30;;
7199;SDS011;3641;49.082;8.200;2023-03-23T13:45:35;2.13;;;1.10;;
7199;SDS011;3641;49.082;8.200;2023-03-23T13:48:17;3.67;;;1.60;;
7199;SDS011;3641;49.082;8.200;2023-03-23T13:50:50;2.78;;;1.30;;
7199;SDS011;3641;49.082;8.200;2023-03-23T13:53:24;2.42;;;1.55;;
7199;SDS011;3641;49.082;8.200;2023-03-23T13:56:05;2.92;;;1.58;;
7199;SDS011;3641;49.082;8.200;2023-03-23T13:58:43;2.55;;;1.50;;
7199;SDS011;3641;49.082;8.200;2023-03-23T14:01:12;4.80;;;1.40;;
7199;SDS011;3641;49.082;8.200;2023-03-23T14:03:42;3.97;;;1.60;;
7199;SDS011;3641;49.082;8.200;2023-03-23T14:06:16;3.25;;;1.73;;
7199;SDS011;3641;49.082;8.200;2023-03-23T14:08:47;2.35;;;1.40;;
7199;SDS011;3641;49.082;8.200;2023-03-23T14:11:17;3.63;;;1.40;;
7199;SDS011;3641;49.082;8.200;2023-03-23T14:13:50;2.65;;;1.70;;
7199;SDS011;3641;49.082;8.200;2023-03-23T14:16:29;3.83;;;1.50;;
7199;SDS011;3641;49.082;8.200;2023-03-23T14:19:02;3.88;;;1.60;;
7199;SDS011;3641;49.082;8.200;2023-03-23T14:21:35;2.95;;;1.60;;
7199;SDS011;3641;49.082;8.200;2023-03-23T14:24:08;3.78;;;1.77;;
7199;SDS011;3641;49.082;8.200;2023-03-23T14:26:36;3.53;;;1.67;;
7199;SDS011;3641;49.082;8.200;2023-03-23T14:29:04;4.82;;;1.55;;
7199;SDS011;3641;49.082;8.200;2023-03-23T14:31:32;5.03;;;1.40;;
7199;SDS011;3641;49.082;8.200;2023-03-23T14:34:01;3.00;;;1.80;;
7199;SDS011;3641;49.082;8.200;2023-03-23T14:36:29;4.28;;;1.77;;
7199;SDS011;3641;49.082;8.200;2023-03-23T14:39:00;3.00;;;1.50;;
7199;SDS011;3641;49.082;8.200;2023-03-23T14:41:31;3.67;;;1.77;;
7199;SDS011;3641;49.082;8.200;2023-03-23T14:43:59;2.95;;;1.55;;
7199;SDS011;3641;49.082;8.200;2023-03-23T14:46:27;3.47;;;1.90;;
7199;SDS011;3641;49.082;8.200;2023-03-23T14:48:55;4.47;;;1.33;;
7199;SDS011;3641;49.082;8.200;2023-03-23T14:51:22;6.03;;;1.30;;
7199;SDS011;3641;49.082;8.200;2023-03-23T14:53:49;3.35;;;1.80;;
7199;SDS011;3641;49.082;8.200;2023-03-23T14:56:20;4.22;;;1.60;;
7199;SDS011;3641;49.082;8.200;2023-03-23T14:58:52;4.20;;;1.85;;
7199;SDS011;3641;49.082;8.200;2023-03-23T15:01:20;3.67;;;1.77;;
7199;SDS011;3641;49.082;8.200;2023-03-23T15:03:52;2.85;;;1.60;;
7199;SDS011;3641;49.082;8.200;2023-03-23T15:06:20;5.20;;;1.70;;
7199;SDS011;3641;49.082;8.200;2023-03-23T15:08:49;2.83;;;1.50;;
7199;SDS011;3641;49.082;8.200;2023-03-23T15:11:23;6.60;;;2.20;;
7199;SDS011;3641;49.082;8.200;2023-03-23T15:13:53;2.88;;;1.75;;
7199;SDS011;3641;49.082;8.200;2023-03-23T15:16:22;3.55;;;1.77;;
7199;SDS011;3641;49.082;8.200;2023-03-23T15:18:52;3.50;;;2.00;;
7199;SDS011;3641;49.082;8.200;2023-03-23T15:21:22;3.30;;;1.80;;
7199;SDS011;3641;49.082;8.200;2023-03-23T15:23:52;3.22;;;2.13;;
7199;SDS011;3641;49.082;8.200;2023-03-23T15:26:28;5.00;;;2.20;;
7199;SDS011;3641;49.082;8.200;2023-03-23T15:31:49;3.55;;;1.80;;
7199;SDS011;3641;49.082;8.200;2023-03-23T15:34:25;5.00;;;2.45;;
7199;SDS011;3641;49.082;8.200;2023-03-23T15:36:56;4.13;;;1.83;;
7199;SDS011;3641;49.082;8.200;2023-03-23T15:39:25;3.20;;;2.03;;
7199;SDS011;3641;49.082;8.200;2023-03-23T15:41:54;6.15;;;1.75;;
7199;SDS011;3641;49.082;8.200;2023-03-23T15:44:23;4.40;;;1.95;;
7199;SDS011;3641;49.082;8.200;2023-03-23T15:46:52;5.18;;;1.60;;